Time;durP1;ratioP1;P1;durP2;ratioP2;P2;SDS_P1;SDS_P2;PMS_P1;PMS_P2;Temp;Humidity;BMP_temperature;BMP_pressure;BME280_temperature;BME280_humidity;BME280_pressure;Samples;Min_cycle;Max_cycle;Signal;HPM_P1;HPM_P2
2020/12/02 00:01:17;;;;;;;1.45;0.80;;;;;;;5.47;67.82;101314.63;4979808;28;20026;-73
2020/12/02 00:03:50;;;;;;;2.95;0.60;;;;;;;5.45;67.46;101309.44;4972871;28;20230;-74
2020/12/02 00:06:22;;;;;;;0.30;0.30;;;;;;;5.39;67.07;101308.38;4992904;23;20064;-76
2020/12/02 00:08:53;;;;;;;0.50;0.50;;;;;;;5.47;67.67;101306.50;4933899;28;20032;-73
2020/12/02 00:11:20;;;;;;;0.25;0.20;;;;;;;5.50;67.12;101308.78;4941253;28;20424;-73
2020/12/02 00:13:48;;;;;;;0.52;0.30;;;;;;;5.51;66.78;101296.91;4946107;28;20031;-75
2020/12/02 00:16:21;;;;;;;0.20;0.20;;;;;;;5.55;67.08;101306.28;4967156;28;20156;-74
2020/12/02 00:18:47;;;;;;;1.45;0.63;;;;;;;5.57;67.37;101302.31;4955180;28;20020;-74
2020/12/02 00:21:12;;;;;;;0.40;0.40;;;;;;;5.56;67.32;101305.22;4955253;28;20073;-75
2020/12/02 00:23:38;;;;;;;0.93;0.57;;;;;;;5.55;67.35;101300.88;4952987;28;20040;-75
2020/12/02 00:26:07;;;;;;;0.43;0.43;;;;;;;5.56;67.10;101297.09;4941056;28;20710;-74
2020/12/02 00:28:33;;;;;;;0.15;0.15;;;;;;;5.56;67.35;101289.81;4935766;28;20030;-74
2020/12/02 00:30:58;;;;;;;0.60;0.40;;;;;;;5.60;67.25;101292.91;4955912;28;20027;-74
2020/12/02 00:33:25;;;;;;;2.90;0.50;;;;;;;5.58;66.73;101289.59;4959313;28;20042;-74
2020/12/02 00:35:52;;;;;;;2.28;1.70;;;;;;;5.58;67.09;101284.16;4962989;28;20035;-74
2020/12/02 00:38:20;;;;;;;0.80;0.75;;;;;;;5.57;66.81;101285.19;4967453;28;20077;-74
2020/12/02 00:40:46;;;;;;;2.05;0.70;;;;;;;5.56;67.49;101294.38;4933356;28;20036;-74
2020/12/02 00:43:23;;;;;;;2.42;0.50;;;;;;;5.58;66.67;101284.16;4954931;28;20034;-74
2020/12/02 00:45:50;;;;;;;0.20;0.20;;;;;;;5.62;67.02;101274.53;4944183;28;20029;-74
2020/12/02 00:48:21;;;;;;;0.20;0.20;;;;;;;5.62;66.82;101269.09;4948651;28;20061;-76
2020/12/02 00:50:48;;;;;;;0.30;0.30;;;;;;;5.66;66.83;101270.34;4957579;28;20020;-75
2020/12/02 00:53:19;;;;;;;1.00;0.50;;;;;;;5.69;66.97;101269.09;4960116;28;20382;-74
2020/12/02 00:55:49;;;;;;;2.40;0.90;;;;;;;5.69;67.32;101264.50;4954609;28;20086;-74
2020/12/02 00:58:43;;;;;;;4.63;1.35;;;;;;;5.68;67.28;101257.41;4952540;28;20032;-74
2020/12/02 01:01:14;;;;;;;1.55;1.00;;;;;;;5.63;67.70;101257.22;4954832;28;20122;-73
2020/12/02 01:03:40;;;;;;;1.30;0.70;;;;;;;5.64;67.57;101261.59;4943279;28;20019;-73
2020/12/02 01:06:09;;;;;;;2.00;0.70;;;;;;;5.67;67.35;101260.34;4946804;28;20036;-74
2020/12/02 01:08:39;;;;;;;0.35;0.30;;;;;;;5.71;67.03;101262.41;4959734;28;20033;-74
2020/12/02 01:11:19;;;;;;;0.30;0.30;;;;;;;5.82;67.46;101258.19;4958107;28;20165;-73
2020/12/02 01:13:46;;;;;;;0.20;0.20;;;;;;;5.88;67.03;101248.38;4994787;28;20090;-74
2020/12/02 01:16:20;;;;;;;0.20;0.20;;;;;;;5.93;66.87;101243.13;4936447;28;20034;-75
2020/12/02 01:18:46;;;;;;;0.20;0.20;;;;;;;5.98;66.65;101235.19;4991985;28;20032;-74
2020/12/02 01:21:14;;;;;;;0.10;0.10;;;;;;;6.04;66.88;101244.38;4939375;28;20134;-73
2020/12/02 01:23:43;;;;;;;0.68;0.30;;;;;;;6.06;66.88;101234.09;4940450;28;20054;-74
2020/12/02 01:26:09;;;;;;;2.92;0.30;;;;;;;6.09;66.97;101234.53;4957336;28;20027;-74
2020/12/02 01:28:37;;;;;;;0.52;0.28;;;;;;;6.10;66.78;101228.06;4924210;28;20526;-74
2020/12/02 01:31:04;;;;;;;5.75;0.98;;;;;;;6.10;66.72;101216.34;4948520;28;20151;-73
2020/12/02 01:33:30;;;;;;;1.30;0.85;;;;;;;6.06;66.65;101220.53;4938865;28;20038;-74
2020/12/02 01:35:55;;;;;;;2.47;1.02;;;;;;;6.02;66.99;101220.16;4956822;28;20039;-74
2020/12/02 01:38:41;;;;;;;1.30;1.00;;;;;;;5.98;67.04;101221.63;4956419;28;20031;-74
2020/12/02 01:41:09;;;;;;;;;;;;;;;5.95;67.27;101220.13;4930553;28;20058;-75
2020/12/02 01:43:35;;;;;;;0.38;0.28;;;;;;;5.93;67.46;101221.41;4957710;28;19915;-75
2020/12/02 01:46:17;;;;;;;0.80;0.50;;;;;;;5.94;67.59;101212.22;4937694;28;20492;-74
2020/12/02 01:49:00;;;;;;;0.43;0.40;;;;;;;5.99;66.78;101219.75;4937832;28;20023;-75
2020/12/02 01:51:41;;;;;;;1.77;0.98;;;;;;;6.00;67.33;101210.53;4956602;28;20023;-75
2020/12/02 01:54:20;;;;;;;3.88;1.33;;;;;;;5.95;67.30;101219.31;4956038;28;20034;-75
2020/12/02 01:56:54;;;;;;;1.55;1.20;;;;;;;5.91;67.58;101220.78;4955194;28;20023;-75
2020/12/02 01:59:46;;;;;;;2.95;1.73;;;;;;;5.84;68.02;101212.69;4943722;28;20051;-75
2020/12/02 02:02:20;;;;;;;2.97;1.48;;;;;;;5.75;68.42;101214.81;4961702;28;20030;-75
2020/12/02 02:05:02;;;;;;;1.63;1.52;;;;;;;5.70;68.69;101211.06;4958848;28;20027;-75
2020/12/02 02:07:31;;;;;;;1.30;1.20;;;;;;;5.66;68.49;101209.81;4965546;28;20042;-74
2020/12/02 02:10:09;;;;;;;2.70;0.98;;;;;;;5.62;68.49;101203.97;4968461;28;20031;-75
2020/12/02 02:12:51;;;;;;;3.83;1.60;;;;;;;5.56;68.74;101194.00;4970313;28;20423;-73
2020/12/02 02:15:17;;;;;;;1.85;1.40;;;;;;;5.58;68.94;101197.34;4954490;28;20032;-74
2020/12/02 02:17:43;;;;;;;2.40;1.33;;;;;;;5.59;69.05;101194.41;4966253;28;20072;-74
2020/12/02 02:20:09;;;;;;;4.28;1.23;;;;;;;5.62;68.47;101190.41;4940752;28;20039;-74
2020/12/02 02:22:35;;;;;;;3.30;1.30;;;;;;;5.65;68.88;101186.44;4948915;28;20260;-73
2020/12/02 02:25:01;;;;;;;2.63;1.42;;;;;;;5.66;68.63;101188.94;4935546;28;20885;-74
2020/12/02 02:27:28;;;;;;;4.78;1.05;;;;;;;5.66;68.43;101178.09;4948226;28;20036;-74
2020/12/02 02:29:54;;;;;;;0.60;0.50;;;;;;;5.70;68.56;101184.75;4939025;28;20062;-75
2020/12/02 02:32:22;;;;;;;0.65;0.32;;;;;;;5.76;68.66;101183.88;4941479;28;20474;-75
2020/12/02 02:34:51;;;;;;;2.58;0.60;;;;;;;5.81;68.50;101180.56;4944697;28;20034;-76
2020/12/02 02:37:19;;;;;;;1.50;0.50;;;;;;;5.85;68.45;101170.06;4954952;28;20480;-76
2020/12/02 02:39:46;;;;;;;0.88;0.52;;;;;;;5.88;68.04;101165.03;4938754;28;20099;-75
2020/12/02 02:42:48;;;;;;;0.20;0.20;;;;;;;5.95;68.15;101162.31;4978907;28;20034;-75
2020/12/02 02:45:18;;;;;;;0.50;0.50;;;;;;;6.00;67.98;101162.53;4940777;28;20047;-76
2020/12/02 02:47:44;;;;;;;1.55;0.50;;;;;;;6.02;68.04;101165.84;4950328;28;20055;-74
2020/12/02 02:50:13;;;;;;;0.98;0.52;;;;;;;6.08;68.11;101169.56;4933005;28;20035;-76
2020/12/02 02:52:41;;;;;;;4.28;1.10;;;;;;;6.09;68.22;101172.06;4968929;28;20041;-75
2020/12/02 02:55:11;;;;;;;3.70;0.80;;;;;;;6.14;68.01;101167.88;4941198;28;20370;-73
2020/12/02 02:57:37;;;;;;;3.83;0.73;;;;;;;6.17;67.97;101172.88;4945166;28;20072;-73
2020/12/02 03:00:10;;;;;;;1.05;0.60;;;;;;;6.19;67.89;101159.88;4950721;28;20114;-74
2020/12/02 03:02:36;;;;;;;0.30;0.30;;;;;;;6.20;67.94;101156.94;4941065;28;20035;-74
2020/12/02 03:05:04;;;;;;;0.73;0.30;;;;;;;6.24;67.59;101154.66;4961963;28;20067;-73
2020/12/02 03:07:29;;;;;;;0.30;0.20;;;;;;;6.28;67.49;101145.00;4936380;28;20039;-74
2020/12/02 03:09:55;;;;;;;0.20;0.20;;;;;;;6.31;68.10;101133.69;4936486;28;20111;-76
2020/12/02 03:12:21;;;;;;;0.98;0.43;;;;;;;6.35;67.80;101131.38;4941758;28;20031;-75
2020/12/02 03:14:47;;;;;;;0.20;0.20;;;;;;;6.36;67.81;101128.44;4957251;28;20464;-75
2020/12/02 03:17:18;;;;;;;0.30;0.30;;;;;;;6.42;67.68;101130.25;4957580;28;20025;-75
2020/12/02 03:19:58;;;;;;;0.28;0.20;;;;;;;6.43;67.97;101123.78;4959132;28;20020;-74
2020/12/02 03:22:26;;;;;;;0.95;0.30;;;;;;;6.45;67.57;101120.84;4945787;28;20027;-75
2020/12/02 03:24:56;;;;;;;0.20;0.20;;;;;;;6.48;67.55;101123.09;4932646;28;20126;-75
2020/12/02 03:27:23;;;;;;;0.70;0.38;;;;;;;6.48;67.39;101114.94;4957504;28;20034;-75
2020/12/02 03:29:48;;;;;;;0.17;0.17;;;;;;;6.48;67.37;101114.94;4955087;28;20107;-76
2020/12/02 03:32:14;;;;;;;0.70;0.68;;;;;;;6.44;67.40;101109.16;4938125;28;20058;-74
2020/12/02 03:34:39;;;;;;;0.40;0.40;;;;;;;6.45;67.33;101110.81;4954025;28;20032;-72
2020/12/02 03:37:05;;;;;;;0.30;0.30;;;;;;;6.45;67.14;101099.94;4951356;28;20070;-73
2020/12/02 03:39:30;;;;;;;0.38;0.30;;;;;;;6.46;67.40;101096.16;4922016;28;20027;-75
2020/12/02 03:41:55;;;;;;;1.02;0.80;;;;;;;6.45;67.74;101105.38;4939135;28;20035;-72
2020/12/02 03:44:21;;;;;;;1.33;0.85;;;;;;;6.39;67.55;101095.38;4975062;28;20034;-74
2020/12/02 03:46:46;;;;;;;1.08;0.80;;;;;;;6.36;67.59;101090.41;4955942;28;20050;-73
2020/12/02 03:49:12;;;;;;;0.60;0.52;;;;;;;6.36;67.80;101095.81;4940893;28;20092;-73
2020/12/02 03:51:37;;;;;;;0.35;0.25;;;;;;;6.38;67.85;101088.31;4961022;28;20023;-73
2020/12/02 03:54:04;;;;;;;0.55;0.47;;;;;;;6.38;67.80;101082.88;4974064;28;20051;-74
2020/12/02 03:56:29;;;;;;;0.28;0.28;;;;;;;6.36;67.68;101079.53;4953781;28;20023;-73
2020/12/02 03:58:55;;;;;;;0.22;0.10;;;;;;;6.43;67.53;101074.88;4964287;28;20031;-73
2020/12/02 04:01:20;;;;;;;0.17;0.10;;;;;;;6.43;67.48;101064.00;4936526;28;20039;-74
2020/12/02 04:03:46;;;;;;;0.08;0.08;;;;;;;6.45;67.57;101061.91;4944269;28;20042;-73
2020/12/02 04:06:12;;;;;;;0.20;0.13;;;;;;;6.47;67.42;101064.41;4946653;28;20132;-74
2020/12/02 04:08:39;;;;;;;0.10;0.10;;;;;;;6.46;67.59;101060.84;4951111;28;20042;-73
2020/12/02 04:11:05;;;;;;;0.63;0.20;;;;;;;6.41;67.18;101052.53;4954627;28;20031;-73
2020/12/02 04:13:31;;;;;;;0.25;0.25;;;;;;;6.34;67.13;101049.03;4938862;28;20809;-72
2020/12/02 04:15:57;;;;;;;0.30;0.20;;;;;;;6.29;67.55;101048.88;4944664;28;20126;-73
2020/12/02 04:18:22;;;;;;;0.55;0.55;;;;;;;6.25;67.63;101034.06;4956447;28;20030;-73
2020/12/02 04:20:47;;;;;;;0.73;0.20;;;;;;;6.24;67.79;101038.69;4949294;28;20110;-73
2020/12/02 04:23:13;;;;;;;0.75;0.40;;;;;;;6.17;67.57;101024.31;4956199;28;20059;-74
2020/12/02 04:25:38;;;;;;;1.15;0.30;;;;;;;6.16;67.19;101019.13;4968336;28;20028;-75
2020/12/02 04:28:04;;;;;;;1.52;0.60;;;;;;;6.08;68.12;101007.47;4957784;28;20020;-75
2020/12/02 04:30:29;;;;;;;0.52;0.40;;;;;;;6.06;67.80;101006.03;4953574;28;20401;-74
2020/12/02 04:32:55;;;;;;;0.43;0.40;;;;;;;6.03;68.04;101009.19;4927174;28;20035;-76
2020/12/02 04:35:20;;;;;;;2.47;1.40;;;;;;;5.97;68.50;101010.03;4941180;28;20110;-76
2020/12/02 04:37:46;;;;;;;1.73;1.63;;;;;;;5.87;68.75;101002.38;4951464;28;20115;-77
2020/12/02 04:40:21;;;;;;;1.75;1.40;;;;;;;5.76;68.79;101003.94;4959277;28;20031;-75
2020/12/02 04:42:49;;;;;;;2.67;1.58;;;;;;;5.67;69.33;100999.84;4954995;28;20031;-74
2020/12/02 04:45:17;;;;;;;1.65;1.40;;;;;;;5.57;69.77;100994.88;4952938;28;20028;-75
2020/12/02 04:47:43;;;;;;;2.78;1.73;;;;;;;5.47;70.98;100995.34;4942728;28;20042;-73
2020/12/02 04:50:17;;;;;;;1.83;1.02;;;;;;;5.39;70.32;100993.75;4940089;28;20031;-74
2020/12/02 04:53:12;;;;;;;4.65;1.10;;;;;;;5.34;70.90;100990.00;4956204;28;20381;-74
2020/12/02 04:55:39;;;;;;;1.48;1.10;;;;;;;5.28;71.00;100982.75;4958062;28;20035;-74
2020/12/02 04:58:15;;;;;;;3.58;1.70;;;;;;;5.24;70.27;100979.63;4937044;28;20381;-74
2020/12/02 05:00:41;;;;;;;1.77;1.40;;;;;;;5.22;70.56;100987.16;4951628;28;20032;-74
2020/12/02 05:03:15;;;;;;;1.63;1.52;;;;;;;5.17;71.10;100984.25;4944898;28;20057;-75
2020/12/02 05:05:41;;;;;;;1.33;1.23;;;;;;;5.11;71.33;100982.41;4938565;28;20055;-74
2020/12/02 05:08:20;;;;;;;2.03;0.80;;;;;;;5.08;71.13;100980.97;4951783;28;20048;-74
2020/12/02 05:10:45;;;;;;;7.22;1.58;;;;;;;5.04;71.84;100980.56;4950524;28;20038;-75
2020/12/02 05:13:11;;;;;;;3.00;1.48;;;;;;;5.03;71.49;100975.38;4961284;28;20035;-75
2020/12/02 05:15:37;;;;;;;2.67;1.50;;;;;;;5.04;71.61;100974.34;4927922;28;20027;-73
2020/12/02 05:18:24;;;;;;;1.65;1.20;;;;;;;5.02;71.84;100965.56;4953279;28;20050;-74
2020/12/02 05:21:03;;;;;;;2.08;1.23;;;;;;;5.04;72.25;100963.50;4933563;28;20053;-74
2020/12/02 05:23:28;;;;;;;1.77;0.98;;;;;;;5.06;72.03;100955.97;4982333;28;20031;-75
2020/12/02 05:25:54;;;;;;;1.88;0.60;;;;;;;5.09;71.94;100954.69;4940414;28;20070;-74
2020/12/02 05:28:27;;;;;;;1.13;0.95;;;;;;;5.13;71.74;100953.22;4921141;28;20764;-75
2020/12/02 05:31:11;;;;;;;4.07;1.40;;;;;;;5.12;71.69;100943.41;4936921;28;20030;-73
2020/12/02 05:33:36;;;;;;;5.88;1.23;;;;;;;5.09;72.23;100952.00;4955613;28;20069;-75
2020/12/02 05:36:20;;;;;;;2.05;1.60;;;;;;;5.11;72.14;100950.72;4926494;28;20027;-76
2020/12/02 05:38:58;;;;;;;1.60;1.50;;;;;;;5.09;71.99;100949.28;4945302;28;20075;-73
2020/12/02 05:41:26;;;;;;;4.28;1.85;;;;;;;5.04;72.05;100953.47;4951024;28;20469;-75
2020/12/02 05:44:18;;;;;;;1.02;0.95;;;;;;;5.01;72.09;100953.06;4936342;28;20023;-74
2020/12/02 05:46:49;;;;;;;3.63;1.08;;;;;;;4.97;72.18;100941.00;4946147;28;20533;-76
2020/12/02 05:49:31;;;;;;;1.90;1.33;;;;;;;4.94;72.50;100936.03;4966805;28;20020;-75
2020/12/02 05:51:57;;;;;;;5.63;1.00;;;;;;;4.91;72.90;100937.28;4941725;28;20035;-74
2020/12/02 05:54:24;;;;;;;1.15;0.98;;;;;;;4.88;72.79;100935.00;4950371;28;20077;-75
2020/12/02 05:56:49;;;;;;;1.30;0.90;;;;;;;4.87;72.80;100941.47;4938468;28;20023;-74
2020/12/02 05:59:17;;;;;;;2.13;1.30;;;;;;;4.85;72.56;100943.56;4948657;28;20032;-74
2020/12/02 06:01:44;;;;;;;4.43;1.05;;;;;;;4.82;72.43;100952.94;4958910;28;20059;-75
2020/12/02 06:04:12;;;;;;;1.88;1.30;;;;;;;4.77;73.14;100938.38;4949878;28;20055;-76
2020/12/02 06:06:38;;;;;;;2.15;1.73;;;;;;;4.77;73.55;100936.47;4973682;28;20511;-76
2020/12/02 06:09:03;;;;;;;2.45;1.40;;;;;;;4.75;73.78;100937.78;5050913;28;20037;-77
2020/12/02 06:11:35;;;;;;;6.10;1.88;;;;;;;4.74;73.80;100941.50;5030642;28;20033;-75
2020/12/02 06:14:03;;;;;;;2.28;2.08;;;;;;;4.75;73.73;100933.16;5053244;28;20055;-75
2020/12/02 06:16:31;;;;;;;3.22;1.38;;;;;;;4.77;73.54;100932.94;5058966;28;20052;-74
2020/12/02 06:19:22;;;;;;;3.75;1.48;;;;;;;4.76;73.71;100931.28;5049391;28;20025;-75
2020/12/02 06:21:54;;;;;;;9.80;2.10;;;;;;;4.77;73.46;100930.25;5052997;28;20037;-76
2020/12/02 06:24:44;;;;;;;3.33;2.40;;;;;;;4.77;74.50;100931.06;5047379;28;20112;-75
2020/12/02 06:27:15;;;;;;;1.05;1.05;;;;;;;4.79;74.38;100922.72;5043930;28;20021;-76
2020/12/02 06:29:43;;;;;;;1.42;1.33;;;;;;;4.78;73.45;100927.31;5055904;28;20021;-74
2020/12/02 06:32:21;;;;;;;3.13;1.65;;;;;;;4.79;73.83;100914.59;5041327;28;20017;-74
2020/12/02 06:34:48;;;;;;;2.28;2.08;;;;;;;4.79;74.20;100911.88;5041379;28;20017;-75
2020/12/02 06:37:18;;;;;;;2.97;1.30;;;;;;;4.78;74.34;100910.25;5055454;28;20033;-75
2020/12/02 06:39:54;;;;;;;1.10;0.82;;;;;;;4.79;73.61;100901.03;5046766;28;20068;-77
2020/12/02 06:42:25;;;;;;;2.97;0.70;;;;;;;4.80;73.53;100894.59;5045328;28;20041;-75
2020/12/02 06:45:28;;;;;;;0.98;0.45;;;;;;;4.81;73.57;100888.13;5046140;28;20151;-75
2020/12/02 06:48:02;;;;;;;0.65;0.40;;;;;;;4.83;73.31;100880.59;5044708;28;20035;-74
2020/12/02 06:50:33;;;;;;;0.25;0.20;;;;;;;4.83;73.54;100888.72;5061529;28;20036;-73
2020/12/02 06:53:28;;;;;;;0.38;0.30;;;;;;;4.89;73.07;100893.28;5054764;28;20025;-74
2020/12/02 06:55:59;;;;;;;0.30;0.30;;;;;;;4.91;73.04;100896.63;5020518;28;20140;-73
2020/12/02 06:58:25;;;;;;;8.23;1.85;;;;;;;4.91;73.90;100891.19;5061289;28;20067;-74
2020/12/02 07:01:03;;;;;;;0.80;0.80;;;;;;;4.90;73.06;100882.22;5033831;28;20064;-75
2020/12/02 07:03:41;;;;;;;0.43;0.40;;;;;;;4.91;72.70;100880.34;5027572;28;20022;-74
2020/12/02 07:06:23;;;;;;;1.67;0.52;;;;;;;4.90;72.98;100875.97;5037726;28;20049;-75
2020/12/02 07:09:01;;;;;;;0.93;0.80;;;;;;;4.90;73.43;100865.13;4943202;28;20032;-76
2020/12/02 07:11:27;;;;;;;1.10;1.00;;;;;;;4.87;73.32;100863.69;4950642;28;20729;-74
2020/12/02 07:13:54;;;;;;;4.88;1.05;;;;;;;4.85;73.39;100862.25;4952879;28;20470;-75
2020/12/02 07:16:22;;;;;;;1.25;1.15;;;;;;;4.83;73.49;100864.34;4954791;28;20062;-75
2020/12/02 07:19:12;;;;;;;4.03;1.30;;;;;;;4.82;73.48;100863.53;4970839;28;20027;-74
2020/12/02 07:21:43;;;;;;;1.92;1.38;;;;;;;4.79;73.18;100860.41;4980098;28;20039;-74
2020/12/02 07:24:40;;;;;;;2.15;1.60;;;;;;;4.78;73.76;100861.47;4959825;28;20022;-73
2020/12/02 07:27:06;;;;;;;2.20;1.35;;;;;;;4.75;73.50;100857.31;4943640;28;20396;-75
2020/12/02 07:29:32;;;;;;;4.13;2.03;;;;;;;4.70;73.99;100844.41;4948591;28;20015;-74
2020/12/02 07:32:01;;;;;;;3.85;1.65;;;;;;;4.68;74.19;100835.66;4933003;28;20027;-72
2020/12/02 07:34:28;;;;;;;0.85;0.85;;;;;;;4.67;74.02;100823.19;4943526;28;20039;-72
2020/12/02 07:37:04;;;;;;;2.72;1.30;;;;;;;4.68;73.58;100819.41;4958594;28;20031;-72
2020/12/02 07:39:30;;;;;;;0.57;0.50;;;;;;;4.66;73.58;100818.78;4939651;28;20046;-75
2020/12/02 07:42:04;;;;;;;0.60;0.43;;;;;;;4.71;73.52;100813.53;4979884;28;20064;-76
2020/12/02 07:44:35;;;;;;;2.08;0.70;;;;;;;4.76;73.79;100814.78;4954581;28;20031;-73
2020/12/02 07:47:07;;;;;;;1.60;1.50;;;;;;;4.79;73.96;100819.75;4942263;28;20111;-74
2020/12/02 07:49:32;;;;;;;0.50;0.50;;;;;;;4.81;73.75;100821.19;4957446;28;20034;-73
2020/12/02 07:52:11;;;;;;;0.70;0.68;;;;;;;4.86;73.64;100820.53;4944728;28;20392;-72
2020/12/02 07:54:37;;;;;;;1.02;1.02;;;;;;;4.89;73.84;100830.94;4972730;28;20047;-72
2020/12/02 07:57:03;;;;;;;1.27;1.13;;;;;;;4.89;73.45;100830.94;4946750;28;20032;-74
2020/12/02 07:59:31;;;;;;;1.98;0.73;;;;;;;4.93;73.09;100821.34;4963143;28;20031;-76
2020/12/02 08:01:57;;;;;;;2.72;1.40;;;;;;;4.97;73.68;100822.56;4935454;28;20031;-75
2020/12/02 08:04:22;;;;;;;3.63;1.55;;;;;;;4.97;73.46;100827.16;4993925;28;20402;-76
2020/12/02 08:07:12;;;;;;;1.25;1.17;;;;;;;4.98;73.15;100823.38;4972850;28;20087;-74
2020/12/02 08:09:43;;;;;;;2.17;1.52;;;;;;;4.94;73.91;100819.47;4965631;28;20150;-70
2020/12/02 08:12:16;;;;;;;2.00;1.30;;;;;;;4.97;73.18;100822.56;4959479;28;20117;-69
2020/12/02 08:14:47;;;;;;;4.97;1.50;;;;;;;4.98;73.55;100824.22;4960756;28;20401;-67
2020/12/02 08:17:23;;;;;;;1.83;1.42;;;;;;;4.99;73.37;100815.03;4955208;28;20031;-71
2020/12/02 08:19:52;;;;;;;0.60;0.60;;;;;;;5.00;73.30;100805.84;4972450;28;20030;-70
2020/12/02 08:22:31;;;;;;;0.50;0.50;;;;;;;5.06;72.87;100807.69;4965878;28;20038;-70
2020/12/02 08:25:26;;;;;;;1.00;0.90;;;;;;;5.15;72.95;100812.84;4955018;28;20026;-69
2020/12/02 08:27:58;;;;;;;0.40;0.38;;;;;;;5.19;72.88;100808.66;4929464;28;20041;-70
2020/12/02 08:30:26;;;;;;;0.98;0.50;;;;;;;5.24;73.26;100800.66;4955426;28;20372;-71
2020/12/02 08:33:00;;;;;;;0.77;0.77;;;;;;;5.31;73.10;100804.16;4946529;28;20030;-69
2020/12/02 08:35:31;;;;;;;0.32;0.32;;;;;;;5.33;73.32;100783.09;4953591;28;20526;-70
2020/12/02 08:37:59;;;;;;;0.52;0.47;;;;;;;5.42;73.02;100786.34;4962247;28;20019;-71
2020/12/02 08:40:33;;;;;;;4.93;1.20;;;;;;;5.48;72.69;100774.59;4971557;28;20026;-71
2020/12/02 08:43:21;;;;;;;1.67;1.55;;;;;;;5.55;72.45;100774.53;4963584;28;20023;-68
2020/12/02 08:45:56;;;;;;;0.85;0.60;;;;;;;5.59;72.61;100767.59;4975134;28;20025;-70
2020/12/02 08:48:22;;;;;;;0.90;0.90;;;;;;;5.64;72.47;100762.31;4967536;28;20496;-71
2020/12/02 08:50:48;;;;;;;1.08;0.98;;;;;;;5.70;72.44;100764.13;4970246;28;20480;-71
2020/12/02 08:53:22;;;;;;;1.73;1.63;;;;;;;5.77;72.63;100764.06;4966353;28;20073;-69
2020/12/02 08:55:47;;;;;;;2.25;1.35;;;;;;;5.84;72.68;100763.97;4972678;28;20034;-70
2020/12/02 08:58:13;;;;;;;1.33;1.23;;;;;;;5.93;72.29;100757.22;4971708;28;20392;-71
2020/12/02 09:00:38;;;;;;;1.63;1.08;;;;;;;6.03;72.34;100749.41;4957138;28;20096;-71
2020/12/02 09:03:04;;;;;;;2.33;1.58;;;;;;;6.10;72.30;100744.72;4944109;28;20034;-74
2020/12/02 09:05:31;;;;;;;1.35;1.23;;;;;;;6.16;71.43;100747.56;4961426;28;20042;-73
2020/12/02 09:07:57;;;;;;;6.90;1.88;;;;;;;6.25;71.68;100752.44;4957412;28;20070;-73
2020/12/02 09:10:22;;;;;;;5.07;1.90;;;;;;;6.29;72.35;100760.94;4970109;28;20558;-73
2020/12/02 09:12:47;;;;;;;4.55;1.92;;;;;;;6.27;71.65;100750.31;4969280;28;20135;-71
2020/12/02 09:15:13;;;;;;;2.60;1.20;;;;;;;6.31;71.89;100749.84;4968156;28;20038;-70
2020/12/02 09:17:38;;;;;;;0.50;0.38;;;;;;;6.39;71.81;100731.34;4980234;28;20023;-69
2020/12/02 09:20:04;;;;;;;0.52;0.52;;;;;;;6.54;71.68;100743.69;4953159;28;20042;-69
2020/12/02 09:22:29;;;;;;;1.02;0.70;;;;;;;6.64;71.79;100733.09;4949618;28;20035;-69
2020/12/02 09:24:55;;;;;;;1.58;0.93;;;;;;;6.72;71.13;100730.03;4950245;28;20037;-70
2020/12/02 09:27:20;;;;;;;1.23;1.13;;;;;;;6.75;71.01;100729.56;4966373;28;20031;-70
2020/12/02 09:29:46;;;;;;;3.22;1.27;;;;;;;6.74;70.63;100725.19;4981390;28;20046;-69
2020/12/02 09:32:12;;;;;;;3.90;1.55;;;;;;;6.74;70.54;100730.63;4962864;28;20034;-69
2020/12/02 09:34:37;;;;;;;3.72;1.65;;;;;;;6.72;70.34;100729.22;4971405;28;20045;-69
2020/12/02 09:37:07;;;;;;;7.25;2.17;;;;;;;6.65;70.59;100718.44;4947877;28;20045;-71
2020/12/02 09:39:33;;;;;;;2.97;1.33;;;;;;;6.63;70.08;100709.72;4966634;28;20421;-68
2020/12/02 09:42:21;;;;;;;1.73;0.85;;;;;;;6.67;70.56;100708.16;4961717;28;20031;-70
2020/12/02 09:45:01;;;;;;;2.00;1.50;;;;;;;6.69;70.11;100716.94;4950243;28;20045;-68
2020/12/02 09:47:27;;;;;;;1.08;1.08;;;;;;;6.65;70.48;100721.16;4956903;28;20027;-71
2020/12/02 09:49:52;;;;;;;5.80;1.02;;;;;;;6.69;70.42;100719.63;4969735;28;20027;-69
2020/12/02 09:52:38;;;;;;;2.00;0.95;;;;;;;6.75;71.13;100721.41;4972860;28;20041;-69
2020/12/02 09:55:20;;;;;;;3.88;1.77;;;;;;;6.78;70.56;100731.81;4962553;28;20023;-68
2020/12/02 09:57:47;;;;;;;7.93;1.65;;;;;;;6.67;70.42;100734.53;4985288;28;20066;-69
2020/12/02 10:00:14;;;;;;;2.25;1.67;;;;;;;6.62;71.06;100740.66;5018007;28;20443;-70
2020/12/02 10:02:43;;;;;;;5.10;2.03;;;;;;;6.54;70.87;100736.38;5010076;28;20061;-70
2020/12/02 10:05:29;;;;;;;6.55;1.98;;;;;;;6.53;71.13;100737.44;5011155;28;20378;-69
2020/12/02 10:08:14;;;;;;;3.35;1.27;;;;;;;6.54;71.57;100727.38;5020021;28;20112;-69
2020/12/02 10:10:59;;;;;;;2.47;1.58;;;;;;;6.59;71.98;100719.38;4999619;28;20395;-69
2020/12/02 10:13:30;;;;;;;1.70;1.60;;;;;;;6.67;71.19;100719.03;5021259;28;20029;-69
2020/12/02 10:16:05;;;;;;;4.93;1.90;;;;;;;6.71;71.38;100716.69;5022038;28;20033;-69
2020/12/02 10:18:57;;;;;;;2.17;1.25;;;;;;;6.75;70.94;100707.00;5023543;28;20719;-70
2020/12/02 10:21:49;;;;;;;1.88;1.50;;;;;;;6.80;71.17;100704.41;5029441;28;20053;-70
2020/12/02 10:24:45;;;;;;;2.38;1.73;;;;;;;6.84;70.72;100710.22;5018150;28;20021;-69
2020/12/02 10:27:21;;;;;;;10.30;2.60;;;;;;;6.85;70.81;100700.97;5036312;28;20025;-71
2020/12/02 10:29:50;;;;;;;7.13;2.35;;;;;;;6.84;70.99;100702.06;5040357;28;20273;-69
2020/12/02 10:32:18;;;;;;;3.58;2.10;;;;;;;6.83;70.75;100695.78;5019190;28;20044;-69
2020/12/02 10:34:44;;;;;;;6.82;2.35;;;;;;;6.85;71.47;100695.53;5020489;28;20025;-70
2020/12/02 10:37:35;;;;;;;5.57;1.40;;;;;;;6.90;71.23;100692.97;5029535;28;20052;-68
2020/12/02 10:40:00;;;;;;;2.20;1.20;;;;;;;6.92;71.00;100680.78;5011518;28;20183;-69
2020/12/02 10:42:38;;;;;;;5.68;2.03;;;;;;;6.98;71.20;100679.03;5007720;28;20168;-69
2020/12/02 10:45:11;;;;;;;5.15;2.17;;;;;;;7.04;71.05;100682.66;5028542;28;20064;-69
2020/12/02 10:47:48;;;;;;;2.67;1.88;;;;;;;7.09;71.16;100680.09;5037554;28;20104;-70
2020/12/02 10:50:16;;;;;;;4.57;2.20;;;;;;;7.12;71.16;100674.97;5031997;28;20036;-69
2020/12/02 10:52:45;;;;;;;8.65;2.30;;;;;;;7.17;70.35;100655.25;5036775;28;20032;-70
2020/12/02 10:55:14;;;;;;;4.30;3.05;;;;;;;7.23;70.57;100658.91;5017123;28;20025;-69
2020/12/02 10:57:41;;;;;;;3.45;3.03;;;;;;;7.29;70.70;100647.09;5033238;28;20163;-69
2020/12/02 11:00:10;;;;;;;7.47;4.00;;;;;;;7.34;69.86;100633.56;5028785;28;20070;-70
2020/12/02 11:02:36;;;;;;;5.68;4.55;;;;;;;7.38;69.84;100612.19;5031833;28;20033;-69
2020/12/02 11:05:05;;;;;;;5.60;3.70;;;;;;;7.42;69.80;100607.91;5026068;28;20029;-70
2020/12/02 11:07:51;;;;;;;3.70;3.35;;;;;;;7.52;69.54;100613.56;5031452;28;20121;-69
2020/12/02 11:10:25;;;;;;;;;;;;;;;7.63;69.90;100615.41;5031049;28;20031;-69
2020/12/02 11:12:53;;;;;;;8.85;4.05;;;;;;;7.65;69.08;100613.28;5024483;28;19932;-69
2020/12/02 11:15:53;;;;;;;3.72;3.47;;;;;;;7.71;69.50;100622.38;5017601;28;20055;-70
2020/12/02 11:18:55;;;;;;;5.85;3.60;;;;;;;7.72;69.16;100617.75;5034623;28;20360;-70
2020/12/02 11:21:28;;;;;;;4.45;2.95;;;;;;;7.70;68.51;100604.38;5030471;28;20071;-69
2020/12/02 11:24:05;;;;;;;4.65;2.78;;;;;;;7.69;68.30;100591.84;5009326;28;20075;-69
2020/12/02 11:26:38;;;;;;;4.15;2.47;;;;;;;7.71;68.90;100589.72;5015858;28;20463;-70
2020/12/02 11:29:07;;;;;;;5.75;2.58;;;;;;;7.77;69.36;100588.72;5023847;28;20021;-70
2020/12/02 11:31:47;;;;;;;3.20;2.40;;;;;;;7.80;68.76;100592.88;5025656;28;20046;-68
2020/12/02 11:34:38;;;;;;;3.35;1.52;;;;;;;7.77;68.41;100588.72;5005100;28;20125;-69
2020/12/02 11:37:28;;;;;;;1.40;1.30;;;;;;;7.73;69.05;100581.31;5027605;28;20108;-69
2020/12/02 11:40:17;;;;;;;4.32;1.77;;;;;;;7.71;69.06;100584.25;5030788;28;20108;-70
2020/12/02 11:42:55;;;;;;;3.55;1.75;;;;;;;7.69;68.55;100586.38;5021216;28;20040;-70
2020/12/02 11:45:34;;;;;;;6.28;1.65;;;;;;;7.68;68.13;100579.28;5007368;28;20036;-70
2020/12/02 11:48:06;;;;;;;3.38;1.65;;;;;;;7.68;68.27;100573.84;5007719;28;20033;-69
2020/12/02 11:50:39;;;;;;;6.20;1.80;;;;;;;7.69;69.28;100570.06;5009901;28;20029;-70
2020/12/02 11:53:21;;;;;;;4.13;1.60;;;;;;;7.71;69.33;100567.94;5022956;28;20025;-70
2020/12/02 11:55:47;;;;;;;3.95;1.25;;;;;;;7.70;69.41;100560.81;5010070;28;20029;-69